createdAt,value
2018-06-22T00:00:19.886Z,10.93
2018-06-22T00:01:19.909Z,10.94
2018-06-22T00:02:19.864Z,10.93
2018-06-22T00:03:19.854Z,10.95
2018-06-22T00:04:19.846Z,10.84
2018-06-22T00:05:19.832Z,10.86
2018-06-22T00:06:19.821Z,10.86
2018-06-22T00:07:19.834Z,10.87
2018-06-22T00:08:19.800Z,10.75
2018-06-22T00:09:19.792Z,10.90
2018-06-22T00:10:19.778Z,10.81
2018-06-22T00:11:19.767Z,10.81
2018-06-22T00:12:19.779Z,10.86
2018-06-22T00:13:19.748Z,10.81
2018-06-22T00:14:19.736Z,10.84
2018-06-22T00:15:19.728Z,10.88
2018-06-22T00:16:19.713Z,10.73
2018-06-22T00:17:19.728Z,10.72
2018-06-22T00:18:19.692Z,10.73
2018-06-22T00:19:19.684Z,10.73
2018-06-22T00:20:19.672Z,10.76
2018-06-22T00:21:19.662Z,10.73
2018-06-22T00:22:19.672Z,10.72
2018-06-22T00:23:19.638Z,10.75
2018-06-22T00:24:19.627Z,10.69
2018-06-22T00:25:19.619Z,10.68
2018-06-22T00:26:19.606Z,10.65
2018-06-22T00:27:19.623Z,10.72
2018-06-22T00:28:19.585Z,10.69
2018-06-22T00:29:19.574Z,10.66
2018-06-22T00:30:19.563Z,10.60
2018-06-22T00:31:19.552Z,10.66
2018-06-22T00:32:19.565Z,10.63
2018-06-22T00:33:19.531Z,10.57
2018-06-22T00:34:19.523Z,10.69
2018-06-22T00:35:19.510Z,10.69
2018-06-22T00:36:19.499Z,10.60
2018-06-22T00:37:19.512Z,10.65
2018-06-22T00:38:19.479Z,10.63
2018-06-22T00:39:19.467Z,10.62
2018-06-22T00:40:19.456Z,10.68
2018-06-22T00:41:19.449Z,10.72
2018-06-22T00:42:19.460Z,10.73
2018-06-22T00:43:19.425Z,10.73
2018-06-22T00:44:19.414Z,10.84
2018-06-22T00:45:19.403Z,10.91
2018-06-22T00:46:19.392Z,10.94
2018-06-22T00:47:19.413Z,11.01
2018-06-22T00:48:19.377Z,11.08
2018-06-22T00:49:19.360Z,11.17
2018-06-22T00:50:19.354Z,11.08
2018-06-22T00:51:19.339Z,11.06
2018-06-22T00:52:19.329Z,11.12
2018-06-22T00:53:19.342Z,11.13
2018-06-22T00:54:19.307Z,11.13
2018-06-22T00:55:19.295Z,11.19
2018-06-22T00:56:19.284Z,11.21
2018-06-22T00:57:19.275Z,11.11
2018-06-22T00:58:19.288Z,11.16
2018-06-22T00:59:19.253Z,11.16
2018-06-22T01:00:19.245Z,11.09
2018-06-22T01:01:19.231Z,11.20
2018-06-22T01:02:19.222Z,11.16
2018-06-22T01:03:19.235Z,11.20
2018-06-22T01:04:19.201Z,11.30
2018-06-22T01:05:19.188Z,11.30
2018-06-22T01:06:19.178Z,11.28
2018-06-22T01:07:19.170Z,11.28
2018-06-22T01:08:19.184Z,11.24
2018-06-22T01:09:19.145Z,11.28
2018-06-22T01:10:19.136Z,11.33
2018-06-22T01:11:19.125Z,11.36
2018-06-22T01:12:19.113Z,11.36
2018-06-22T01:13:19.102Z,11.33
2018-06-22T01:14:19.114Z,11.35
2018-06-22T01:15:19.081Z,11.31
2018-06-22T01:16:19.070Z,11.31
2018-06-22T01:17:19.062Z,11.28
2018-06-22T01:18:19.048Z,11.31
2018-06-22T01:19:19.062Z,11.39
2018-06-22T01:20:19.029Z,11.35
2018-06-22T01:21:19.018Z,11.30
2018-06-22T01:22:19.093Z,11.31
2018-06-22T01:23:18.996Z,11.28
2018-06-22T01:24:19.007Z,11.33
2018-06-22T01:25:18.975Z,11.36
2018-06-22T01:26:18.964Z,11.53
2018-06-22T01:27:18.950Z,11.46
2018-06-22T01:28:18.941Z,11.39
2018-06-22T01:29:18.953Z,11.27
2018-06-22T01:30:18.918Z,11.28
2018-06-22T01:31:18.907Z,11.33
2018-06-22T01:32:18.897Z,11.31
2018-06-22T01:33:18.885Z,11.28
2018-06-22T01:34:18.912Z,11.35
2018-06-22T01:35:18.864Z,11.31
2018-06-22T01:36:18.853Z,11.45
2018-06-22T01:37:18.843Z,11.39
2018-06-22T01:38:18.835Z,11.44
2018-06-22T01:39:18.821Z,11.38
2018-06-22T01:40:18.838Z,11.38
2018-06-22T01:41:18.800Z,11.42
2018-06-22T01:42:18.788Z,11.44
2018-06-22T01:43:18.778Z,11.46
2018-06-22T01:44:18.767Z,11.42
2018-06-22T01:45:18.785Z,11.44
2018-06-22T01:46:18.746Z,11.36
2018-06-22T01:47:18.734Z,11.36
2018-06-22T01:48:18.723Z,11.36
2018-06-22T01:49:18.713Z,11.36
2018-06-22T01:50:18.701Z,11.42
2018-06-22T01:51:18.723Z,11.46
2018-06-22T01:52:18.681Z,11.36
2018-06-22T01:53:18.670Z,11.42
2018-06-22T01:54:18.658Z,11.41
2018-06-22T01:55:18.647Z,11.39
2018-06-22T01:56:18.660Z,11.42
2018-06-22T01:57:18.626Z,11.44
2018-06-22T01:58:18.615Z,11.46
2018-06-22T01:59:18.605Z,11.38
2018-06-22T02:00:18.596Z,11.35
2018-06-22T02:01:18.609Z,11.31
2018-06-22T02:02:18.572Z,11.26
2018-06-22T02:03:18.562Z,11.36
2018-06-22T02:04:18.554Z,11.38
2018-06-22T02:05:18.541Z,11.28
2018-06-22T02:06:18.563Z,11.33
2018-06-22T02:07:18.520Z,11.38
2018-06-22T02:08:18.511Z,11.38
2018-06-22T02:09:18.497Z,11.28
2018-06-22T02:10:18.487Z,11.38
2018-06-22T02:11:18.475Z,11.39
2018-06-22T02:12:18.488Z,11.39
2018-06-22T02:13:18.458Z,11.38
2018-06-22T02:14:18.442Z,11.31
2018-06-22T02:15:18.432Z,11.36
2018-06-22T02:16:18.421Z,11.44
2018-06-22T02:17:18.438Z,11.39
2018-06-22T02:18:18.400Z,11.36
2018-06-22T02:19:18.389Z,11.42
2018-06-22T02:20:18.379Z,11.36
2018-06-22T02:21:18.373Z,11.46
2018-06-22T02:22:18.563Z,11.42
2018-06-22T02:23:18.346Z,11.48
2018-06-22T02:24:18.336Z,11.46
2018-06-22T02:25:18.326Z,11.48
2018-06-22T02:26:18.314Z,11.45
2018-06-22T02:27:18.304Z,11.48
2018-06-22T02:28:18.316Z,11.56
2018-06-22T02:29:18.281Z,11.57
2018-06-22T02:30:18.271Z,11.51
2018-06-22T02:31:18.267Z,11.51
2018-06-22T02:32:18.249Z,11.62
2018-06-22T02:33:18.261Z,11.60
2018-06-22T02:34:18.229Z,11.56
2018-06-22T02:35:18.218Z,11.57
2018-06-22T02:36:18.206Z,11.64
2018-06-22T02:37:18.196Z,11.63
2018-06-22T02:38:18.211Z,11.63
2018-06-22T02:39:18.173Z,11.54
2018-06-22T02:40:18.162Z,11.56
2018-06-22T02:41:18.152Z,11.53
2018-06-22T02:42:18.144Z,11.51
2018-06-22T02:43:18.155Z,11.46
2018-06-22T02:44:18.120Z,11.42
2018-06-22T02:45:18.109Z,11.42
2018-06-22T02:46:18.098Z,11.44
2018-06-22T02:47:18.087Z,11.36
2018-06-22T02:48:18.103Z,11.41
2018-06-22T02:49:18.066Z,11.36
2018-06-22T02:50:18.055Z,11.36
2018-06-22T02:51:18.049Z,11.46
2018-06-22T02:52:18.034Z,11.28
2018-06-22T02:53:18.023Z,11.30
2018-06-22T02:54:18.039Z,11.28
2018-06-22T02:55:18.000Z,11.35
2018-06-22T02:56:17.990Z,11.36
2018-06-22T02:57:17.980Z,11.28
2018-06-22T02:58:17.969Z,11.31
2018-06-22T02:59:17.985Z,11.33
2018-06-22T03:00:17.947Z,11.39
2018-06-22T03:01:17.936Z,11.48
2018-06-22T03:02:17.926Z,11.46
2018-06-22T03:03:17.914Z,11.45
2018-06-22T03:04:17.904Z,11.45
2018-06-22T03:05:17.919Z,11.46
2018-06-22T03:06:17.881Z,11.53
2018-06-22T03:07:17.872Z,11.49
2018-06-22T03:08:17.860Z,11.59
2018-06-22T03:09:17.850Z,11.63
2018-06-22T03:10:17.864Z,11.46
2018-06-22T03:11:17.829Z,11.53
2018-06-22T03:12:17.817Z,11.48
2018-06-22T03:13:17.807Z,11.44
2018-06-22T03:14:17.796Z,11.51
2018-06-22T03:15:17.816Z,11.49
2018-06-22T03:16:17.774Z,11.53
2018-06-22T03:17:17.766Z,11.53
2018-06-22T03:18:17.752Z,11.48
2018-06-22T03:19:17.746Z,11.46
2018-06-22T03:20:17.731Z,11.49
2018-06-22T03:21:17.743Z,11.51
2018-06-22T03:22:17.710Z,11.56
2018-06-22T03:23:17.699Z,11.53
2018-06-22T03:24:17.690Z,11.49
2018-06-22T03:25:17.677Z,11.54
2018-06-22T03:26:17.690Z,11.54
2018-06-22T03:27:17.655Z,11.49
2018-06-22T03:28:17.645Z,11.54
2018-06-22T03:29:17.636Z,11.60
2018-06-22T03:30:17.628Z,11.64
2018-06-22T03:31:17.637Z,11.66
2018-06-22T03:32:17.603Z,11.64
2018-06-22T03:33:17.592Z,11.63
2018-06-22T03:34:17.582Z,11.53
2018-06-22T03:35:17.569Z,11.51
2018-06-22T03:36:17.582Z,11.44
2018-06-22T03:37:17.548Z,11.39
2018-06-22T03:38:17.537Z,11.35
2018-06-22T03:39:17.527Z,11.27
2018-06-22T03:40:17.516Z,11.28
2018-06-22T03:41:17.528Z,11.23
2018-06-22T03:42:17.493Z,11.24
2018-06-22T03:43:17.483Z,11.19
2018-06-22T03:44:17.472Z,11.20
2018-06-22T03:45:17.461Z,11.11
2018-06-22T03:46:17.479Z,11.06
2018-06-22T03:47:17.440Z,11.06
2018-06-22T03:48:17.432Z,11.06
2018-06-22T03:49:17.418Z,11.06
2018-06-22T03:50:17.408Z,11.08
2018-06-22T03:51:17.399Z,11.05
2018-06-22T03:52:17.409Z,10.99
2018-06-22T03:53:17.375Z,10.95
2018-06-22T03:54:17.364Z,11.03
2018-06-22T03:55:17.353Z,10.99
2018-06-22T03:56:17.342Z,10.94
2018-06-22T03:57:17.355Z,10.94
2018-06-22T03:58:17.321Z,10.98
2018-06-22T03:59:17.312Z,10.93
2018-06-22T04:00:17.300Z,10.94
2018-06-22T04:01:17.294Z,10.94
2018-06-22T04:02:17.300Z,10.94
2018-06-22T04:03:17.267Z,10.86
2018-06-22T04:04:17.257Z,10.91
2018-06-22T04:05:17.245Z,10.93
2018-06-22T04:06:17.240Z,10.87
2018-06-22T04:07:17.252Z,10.93
2018-06-22T04:08:17.311Z,10.88
2018-06-22T04:09:17.203Z,10.95
2018-06-22T04:10:17.193Z,10.86
2018-06-22T04:11:17.182Z,10.90
2018-06-22T04:12:17.171Z,10.93
2018-06-22T04:13:17.185Z,10.98
2018-06-22T04:14:17.149Z,10.93
2018-06-22T04:15:17.138Z,10.93
2018-06-22T04:16:17.128Z,10.88
2018-06-22T04:17:17.120Z,10.84
2018-06-22T04:18:17.137Z,10.81
2018-06-22T04:19:17.097Z,10.84
2018-06-22T04:20:17.085Z,10.84
2018-06-22T04:21:17.075Z,10.83
2018-06-22T04:22:17.065Z,10.90
2018-06-22T04:23:17.078Z,10.88
2018-06-22T04:24:17.088Z,10.87
2018-06-22T04:25:17.031Z,10.93
2018-06-22T04:26:17.021Z,10.98
2018-06-22T04:27:17.015Z,10.95
2018-06-22T04:28:17.035Z,10.91
2018-06-22T04:29:16.989Z,10.95
2018-06-22T04:30:16.978Z,10.93
2018-06-22T04:31:16.969Z,10.94
2018-06-22T04:32:16.960Z,10.93
2018-06-22T04:33:16.946Z,11.05
2018-06-22T04:34:16.958Z,11.01
2018-06-22T04:35:16.924Z,10.98
2018-06-22T04:36:16.915Z,11.03
2018-06-22T04:37:16.903Z,11.03
2018-06-22T04:38:16.892Z,11.11
2018-06-22T04:39:16.906Z,10.99
2018-06-22T04:40:16.874Z,11.05
2018-06-22T04:41:16.860Z,11.03
2018-06-22T04:42:16.894Z,11.01
2018-06-22T04:43:16.838Z,11.13
2018-06-22T04:44:16.851Z,11.17
2018-06-22T04:45:16.817Z,11.19
2018-06-22T04:46:16.809Z,11.16
2018-06-22T04:47:16.799Z,11.13
2018-06-22T04:48:16.785Z,11.08
2018-06-22T04:49:16.799Z,11.21
2018-06-22T04:50:16.766Z,11.19
2018-06-22T04:51:16.755Z,11.21
2018-06-22T04:52:16.742Z,11.21
2018-06-22T04:53:16.735Z,11.20
2018-06-22T04:54:16.747Z,11.26
2018-06-22T04:55:16.709Z,11.27
2018-06-22T04:56:16.706Z,11.35
2018-06-22T04:57:16.690Z,11.41
2018-06-22T04:58:16.679Z,11.33
2018-06-22T04:59:16.694Z,11.42
2018-06-22T05:00:16.659Z,11.45
2018-06-22T05:01:16.646Z,11.41
2018-06-22T05:02:16.636Z,11.49
2018-06-22T05:03:16.625Z,11.46
2018-06-22T05:04:16.646Z,11.49
2018-06-22T05:05:16.603Z,11.53
2018-06-22T05:06:16.592Z,11.57
2018-06-22T05:07:16.584Z,11.60
2018-06-22T05:08:16.570Z,11.60
2018-06-22T05:09:16.581Z,11.67
2018-06-22T05:10:16.579Z,11.81
2018-06-22T05:11:16.539Z,11.69
2018-06-22T05:12:16.532Z,11.67
2018-06-22T05:13:16.520Z,11.70
2018-06-22T05:14:16.506Z,11.70
2018-06-22T05:15:16.521Z,11.78
2018-06-22T05:16:16.485Z,11.77
2018-06-22T05:17:16.476Z,11.84
2018-06-22T05:18:16.463Z,11.79
2018-06-22T05:19:16.454Z,11.84
2018-06-22T05:20:16.470Z,11.90
2018-06-22T05:21:16.436Z,11.87
2018-06-22T05:22:16.423Z,11.82
2018-06-22T05:23:16.411Z,11.96
2018-06-22T05:24:16.399Z,12.03
2018-06-22T05:25:16.388Z,12.03
2018-06-22T05:26:16.408Z,12.08
2018-06-22T05:27:16.370Z,12.12
2018-06-22T05:28:16.360Z,12.08
2018-06-22T05:29:16.346Z,12.15
2018-06-22T05:30:16.368Z,12.12
2018-06-22T05:31:16.356Z,12.15
2018-06-22T05:32:16.315Z,12.12
2018-06-22T05:33:16.302Z,12.19
2018-06-22T05:34:16.290Z,12.19
2018-06-22T05:35:16.281Z,12.21
2018-06-22T05:36:16.269Z,12.46
2018-06-22T05:37:16.283Z,12.51
2018-06-22T05:38:16.247Z,12.61
2018-06-22T05:39:16.236Z,12.69
2018-06-22T05:40:16.225Z,12.73
2018-06-22T05:41:16.214Z,12.71
2018-06-22T05:42:16.227Z,12.92
2018-06-22T05:43:16.195Z,12.96
2018-06-22T05:44:16.183Z,12.85
2018-06-22T05:45:16.172Z,12.98
2018-06-22T05:46:16.161Z,13.01
2018-06-22T05:47:16.175Z,13.06
2018-06-22T05:48:16.142Z,13.12
2018-06-22T05:49:16.132Z,13.03
2018-06-22T05:50:16.124Z,13.12
2018-06-22T05:51:16.110Z,13.13
2018-06-22T05:52:16.125Z,13.14
2018-06-22T05:53:16.088Z,13.17
2018-06-22T05:54:16.075Z,13.17
2018-06-22T05:55:16.067Z,13.16
2018-06-22T05:56:16.100Z,13.14
2018-06-22T05:57:16.068Z,13.21
2018-06-22T05:58:16.033Z,13.14
2018-06-22T05:59:16.023Z,13.12
2018-06-22T06:00:16.012Z,13.14
2018-06-22T06:01:16.002Z,13.17
2018-06-22T06:02:16.014Z,13.29
2018-06-22T06:03:15.980Z,13.31
2018-06-22T06:04:15.969Z,13.35
2018-06-22T06:05:15.958Z,13.27
2018-06-22T06:06:15.947Z,13.35
2018-06-22T06:07:15.961Z,13.48
2018-06-22T06:08:15.931Z,13.50
2018-06-22T06:09:15.916Z,13.47
2018-06-22T06:10:15.905Z,13.47
2018-06-22T06:11:15.961Z,13.41
2018-06-22T06:12:15.913Z,13.62
2018-06-22T06:13:15.875Z,13.63
2018-06-22T06:14:15.863Z,13.65
2018-06-22T06:15:15.853Z,13.63
2018-06-22T06:16:15.842Z,13.62
2018-06-22T06:17:15.831Z,13.63
2018-06-22T06:18:15.843Z,13.68
2018-06-22T06:19:15.809Z,13.62
2018-06-22T06:20:15.798Z,13.69
2018-06-22T06:21:15.787Z,13.65
2018-06-22T06:22:15.777Z,13.68
2018-06-22T06:23:15.795Z,13.63
2018-06-22T06:24:15.757Z,13.68
2018-06-22T06:25:15.745Z,13.71
2018-06-22T06:26:15.734Z,13.69
2018-06-22T06:27:15.732Z,13.68
2018-06-22T06:28:15.713Z,13.62
2018-06-22T06:29:15.726Z,13.73
2018-06-22T06:30:15.692Z,13.73
2018-06-22T06:31:15.682Z,13.73
2018-06-22T06:32:15.671Z,13.75
2018-06-22T06:33:15.660Z,13.84
2018-06-22T06:34:15.706Z,13.69
2018-06-22T06:35:15.639Z,13.73
2018-06-22T06:36:15.630Z,13.61
2018-06-22T06:37:15.617Z,13.65
2018-06-22T06:38:15.606Z,13.66
2018-06-22T06:39:15.632Z,13.61
2018-06-22T06:40:15.585Z,13.68
2018-06-22T06:41:15.581Z,13.66
2018-06-22T06:42:15.565Z,13.73
2018-06-22T06:43:15.552Z,13.76
2018-06-22T06:44:15.567Z,13.81
2018-06-22T06:45:15.531Z,13.83
2018-06-22T06:46:15.521Z,13.88
2018-06-22T06:47:15.511Z,13.87
2018-06-22T06:48:15.500Z,13.87
2018-06-22T06:49:15.514Z,13.96
2018-06-22T06:50:15.480Z,13.99
2018-06-22T06:51:15.467Z,14.04
2018-06-22T06:52:15.460Z,14.08
2018-06-22T06:53:15.450Z,14.12
2018-06-22T06:54:15.464Z,14.21
2018-06-22T06:55:15.423Z,14.34
2018-06-22T06:56:15.413Z,14.38
2018-06-22T06:57:15.402Z,14.30
2018-06-22T06:58:15.391Z,14.17
2018-06-22T06:59:15.403Z,14.13
2018-06-22T07:00:15.370Z,14.04
2018-06-22T07:01:15.360Z,14.02
2018-06-22T07:02:15.348Z,13.96
2018-06-22T07:03:15.337Z,14.01
2018-06-22T07:04:15.350Z,13.99
2018-06-22T07:05:15.318Z,14.02
2018-06-22T07:06:15.303Z,14.05
2018-06-22T07:07:15.293Z,14.01
2018-06-22T07:08:15.282Z,14.24
2018-06-22T07:09:15.295Z,14.26
2018-06-22T07:10:15.264Z,14.38
2018-06-22T07:11:15.284Z,14.39
2018-06-22T07:12:15.241Z,14.63
2018-06-22T07:13:15.229Z,14.67
2018-06-22T07:14:15.244Z,14.59
2018-06-22T07:15:15.209Z,14.60
2018-06-22T07:16:15.197Z,14.64
2018-06-22T07:17:15.237Z,14.56
2018-06-22T07:18:15.177Z,14.57
2018-06-22T07:19:15.198Z,14.49
2018-06-22T07:20:15.153Z,14.46
2018-06-22T07:21:15.141Z,14.48
2018-06-22T07:22:15.131Z,14.39
2018-06-22T07:23:15.120Z,14.30
2018-06-22T07:24:15.116Z,14.29
2018-06-22T07:25:15.122Z,14.35
2018-06-22T07:26:15.088Z,14.29
2018-06-22T07:27:15.077Z,14.27
2018-06-22T07:28:15.065Z,14.36
2018-06-22T07:29:15.054Z,14.34
2018-06-22T07:30:15.066Z,14.36
2018-06-22T07:31:15.033Z,14.36
2018-06-22T07:32:15.021Z,14.48
2018-06-22T07:33:15.010Z,14.59
2018-06-22T07:34:15.000Z,14.64
2018-06-22T07:35:15.023Z,14.74
2018-06-22T07:36:14.979Z,14.67
2018-06-22T07:37:14.968Z,14.54
2018-06-22T07:38:14.958Z,14.54
2018-06-22T07:39:14.945Z,14.44
2018-06-22T07:40:14.935Z,14.30
2018-06-22T07:41:14.947Z,14.36
2018-06-22T07:42:14.912Z,14.39
2018-06-22T07:43:14.901Z,14.42
2018-06-22T07:44:14.890Z,14.42
2018-06-22T07:45:14.914Z,14.44
2018-06-22T07:46:14.871Z,14.27
2018-06-22T07:47:14.859Z,14.42
2018-06-22T07:48:14.847Z,14.34
2018-06-22T07:49:14.838Z,14.24
2018-06-22T07:50:14.832Z,14.23
2018-06-22T07:51:14.839Z,14.24
2018-06-22T07:52:14.804Z,14.41
2018-06-22T07:53:14.795Z,14.39
2018-06-22T07:54:14.782Z,14.42
2018-06-22T07:55:14.775Z,14.54
2018-06-22T07:56:14.792Z,14.63
2018-06-22T07:57:14.803Z,14.53
2018-06-22T07:58:14.741Z,14.59
2018-06-22T07:59:14.729Z,14.48
2018-06-22T08:00:14.740Z,14.48
2018-06-22T08:01:14.708Z,14.42
2018-06-22T08:02:14.721Z,14.39
2018-06-22T08:03:14.685Z,14.29
2018-06-22T08:04:14.674Z,14.31
2018-06-22T08:05:14.664Z,14.44
2018-06-22T08:06:14.665Z,14.60
2018-06-22T08:07:14.665Z,14.72
2018-06-22T08:08:14.632Z,14.91
2018-06-22T08:09:14.620Z,15.09
2018-06-22T08:10:14.609Z,15.00
2018-06-22T08:11:14.598Z,15.16
2018-06-22T08:12:14.615Z,15.31
2018-06-22T08:13:14.576Z,15.38
2018-06-22T08:14:14.570Z,15.53
2018-06-22T08:15:14.557Z,15.64
2018-06-22T08:16:14.546Z,15.78
2018-06-22T08:17:14.559Z,15.91
2018-06-22T08:18:14.523Z,15.91
2018-06-22T08:19:14.511Z,15.92
2018-06-22T08:20:14.501Z,15.70
2018-06-22T08:21:14.490Z,15.49
2018-06-22T08:22:14.504Z,15.44
2018-06-22T08:23:14.469Z,15.31
2018-06-22T08:24:14.472Z,15.12
2018-06-22T08:25:14.448Z,15.05
2018-06-22T08:26:14.437Z,15.09
2018-06-22T08:27:14.450Z,15.09
2018-06-22T08:28:14.419Z,15.01
2018-06-22T08:29:14.404Z,15.18
2018-06-22T08:30:14.393Z,15.31
2018-06-22T08:31:14.382Z,15.33
2018-06-22T08:32:14.395Z,15.38
2018-06-22T08:33:14.362Z,15.37
2018-06-22T08:34:14.349Z,15.40
2018-06-22T08:35:14.339Z,15.40
2018-06-22T08:36:14.329Z,15.35
2018-06-22T08:37:14.345Z,15.52
2018-06-22T08:38:14.307Z,15.67
2018-06-22T08:39:14.297Z,15.80
2018-06-22T08:40:14.286Z,15.95
2018-06-22T08:41:14.275Z,16.22
2018-06-22T08:42:14.296Z,16.18
2018-06-22T08:43:14.257Z,16.26
2018-06-22T08:44:14.243Z,16.33
2018-06-22T08:45:14.235Z,16.48
2018-06-22T08:46:14.222Z,16.66
2018-06-22T08:47:14.241Z,16.62
2018-06-22T08:48:14.204Z,16.81
2018-06-22T08:49:14.193Z,16.82
2018-06-22T08:50:14.179Z,16.99
2018-06-22T08:51:14.168Z,17.06
2018-06-22T08:52:14.159Z,17.02
2018-06-22T08:53:14.177Z,16.96
2018-06-22T08:54:14.139Z,16.96
2018-06-22T08:55:14.127Z,16.91
2018-06-22T08:56:14.114Z,16.84
2018-06-22T08:57:14.103Z,16.70
2018-06-22T08:58:14.122Z,16.63
2018-06-22T08:59:14.082Z,16.45
2018-06-22T09:00:14.071Z,16.37
2018-06-22T09:01:15.049Z,16.40
2018-06-22T09:02:14.050Z,16.48
2018-06-22T09:03:14.039Z,16.59
2018-06-22T09:04:14.052Z,16.54
2018-06-22T09:05:14.018Z,16.51
2018-06-22T09:06:14.008Z,16.50
2018-06-22T09:07:14.013Z,16.59
2018-06-22T09:08:14.031Z,16.59
2018-06-22T09:09:14.002Z,16.59
2018-06-22T09:10:13.967Z,16.63
2018-06-22T09:11:13.955Z,16.75
2018-06-22T09:12:13.948Z,16.78
2018-06-22T09:13:13.932Z,16.96
2018-06-22T09:14:13.949Z,17.02
2018-06-22T09:15:13.911Z,16.95
2018-06-22T09:16:13.899Z,16.92
2018-06-22T09:17:13.889Z,16.99
2018-06-22T09:18:13.879Z,17.07
2018-06-22T09:19:13.891Z,17.10
2018-06-22T09:20:13.858Z,17.21
2018-06-22T09:21:13.858Z,17.45
2018-06-22T09:22:13.836Z,17.58
2018-06-22T09:23:13.825Z,17.55
2018-06-22T09:24:13.847Z,17.74
2018-06-22T09:25:13.816Z,17.76
2018-06-22T09:26:13.797Z,17.79
2018-06-22T09:27:13.786Z,17.74
2018-06-22T09:28:13.773Z,17.73
2018-06-22T09:29:13.762Z,17.66
2018-06-22T09:30:13.774Z,17.49
2018-06-22T09:31:13.780Z,17.51
2018-06-22T09:32:13.733Z,17.40
2018-06-22T09:33:13.720Z,17.38
2018-06-22T09:34:13.709Z,17.35
2018-06-22T09:35:13.722Z,17.12
2018-06-22T09:36:13.688Z,17.06
2018-06-22T09:37:13.678Z,16.72
2018-06-22T09:38:13.667Z,16.47
2018-06-22T09:39:13.655Z,16.34
2018-06-22T09:40:13.683Z,16.23
2018-06-22T09:41:13.634Z,16.22
2018-06-22T09:42:13.623Z,16.17
2018-06-22T09:43:13.612Z,16.27
2018-06-22T09:44:13.601Z,16.41
2018-06-22T09:45:13.638Z,16.59
2018-06-22T09:46:13.604Z,16.78
2018-06-22T09:47:13.569Z,17.03
2018-06-22T09:48:13.561Z,17.14
2018-06-22T09:49:13.547Z,17.25
2018-06-22T09:50:13.537Z,17.39
2018-06-22T09:51:13.549Z,17.30
2018-06-22T09:52:13.515Z,17.27
2018-06-22T09:53:13.504Z,17.25
2018-06-22T09:54:13.494Z,17.42
2018-06-22T09:55:13.575Z,17.51
2018-06-22T09:56:13.500Z,17.54
2018-06-22T09:57:13.463Z,17.63
2018-06-22T09:58:13.453Z,17.62
2018-06-22T09:59:13.442Z,17.46
2018-06-22T10:00:13.433Z,17.35
2018-06-22T10:01:13.449Z,17.05
2018-06-22T10:02:13.417Z,16.98
2018-06-22T10:03:13.398Z,16.73
2018-06-22T10:04:13.388Z,16.40
2018-06-22T10:05:13.381Z,16.29
2018-06-22T10:06:13.366Z,16.10
2018-06-22T10:07:13.379Z,16.04
2018-06-22T10:08:13.377Z,16.07
2018-06-22T10:09:13.333Z,16.07
2018-06-22T10:10:13.323Z,16.17
2018-06-22T10:11:13.315Z,16.16
2018-06-22T10:12:13.355Z,16.25
2018-06-22T10:13:13.291Z,16.32
2018-06-22T10:14:13.282Z,16.44
2018-06-22T10:15:13.269Z,16.45
2018-06-22T10:16:13.259Z,16.60
2018-06-22T10:17:13.247Z,16.62
2018-06-22T10:18:13.261Z,16.52
2018-06-22T10:19:13.225Z,16.51
2018-06-22T10:20:13.215Z,16.42
2018-06-22T10:21:13.204Z,16.32
2018-06-22T10:22:13.197Z,16.18
2018-06-22T10:23:13.205Z,16.08
2018-06-22T10:24:13.174Z,15.95
2018-06-22T10:25:13.161Z,15.86
2018-06-22T10:26:13.150Z,15.85
2018-06-22T10:27:13.167Z,15.86
2018-06-22T10:28:13.152Z,15.96
2018-06-22T10:29:13.122Z,16.11
2018-06-22T10:30:13.107Z,16.18
2018-06-22T10:31:13.099Z,16.32
2018-06-22T10:32:13.088Z,16.59
2018-06-22T10:33:13.101Z,16.87
2018-06-22T10:34:13.065Z,17.09
2018-06-22T10:35:13.054Z,17.06
2018-06-22T10:36:13.044Z,16.98
2018-06-22T10:37:13.032Z,16.73
2018-06-22T10:38:13.049Z,16.47
2018-06-22T10:39:13.026Z,16.23
2018-06-22T10:40:13.001Z,15.99
2018-06-22T10:41:12.989Z,15.78
2018-06-22T10:42:12.980Z,15.78
2018-06-22T10:43:12.990Z,15.78
2018-06-22T10:44:12.958Z,15.77
2018-06-22T10:45:12.948Z,15.98
2018-06-22T10:46:12.942Z,16.11
2018-06-22T10:47:12.926Z,16.22
2018-06-22T10:48:12.960Z,16.13
2018-06-22T10:49:12.904Z,16.33
2018-06-22T10:50:12.893Z,16.25
2018-06-22T10:51:12.881Z,16.18
2018-06-22T10:52:12.873Z,16.22
2018-06-22T10:53:12.861Z,16.10
2018-06-22T10:54:12.872Z,15.99
2018-06-22T10:55:12.840Z,15.92
2018-06-22T10:56:12.830Z,15.77
2018-06-22T10:57:12.817Z,15.71
2018-06-22T10:58:12.807Z,15.59
2018-06-22T10:59:12.824Z,15.59
2018-06-22T11:00:12.786Z,15.51
2018-06-22T11:01:12.776Z,15.43
2018-06-22T11:02:12.765Z,15.48
2018-06-22T11:03:12.755Z,15.49
2018-06-22T11:04:12.796Z,15.67
2018-06-22T11:05:12.731Z,15.67
2018-06-22T11:06:12.725Z,15.81
2018-06-22T11:07:12.714Z,15.76
2018-06-22T11:08:12.700Z,15.81
2018-06-22T11:09:12.689Z,15.80
2018-06-22T11:10:12.702Z,15.92
2018-06-22T11:11:12.668Z,15.98
2018-06-22T11:12:12.661Z,16.18
2018-06-22T11:13:12.646Z,16.27
2018-06-22T11:14:12.637Z,16.29
2018-06-22T11:15:12.677Z,16.36
2018-06-22T11:16:12.615Z,16.44
2018-06-22T11:17:12.657Z,16.55
2018-06-22T11:18:12.609Z,16.70
2018-06-22T11:19:12.582Z,16.96
2018-06-22T11:20:12.571Z,17.14
2018-06-22T11:21:12.599Z,17.36
2018-06-22T11:22:12.550Z,17.57
2018-06-22T11:23:12.539Z,17.60
2018-06-22T11:24:12.529Z,17.81
2018-06-22T11:25:12.520Z,18.10
2018-06-22T11:26:12.530Z,18.94
2018-06-22T11:27:12.496Z,19.01
2018-06-22T11:28:12.486Z,18.91
2018-06-22T11:29:12.485Z,19.01
2018-06-22T11:30:12.464Z,18.82
2018-06-22T11:31:12.479Z,18.71
2018-06-22T11:32:12.504Z,18.66
2018-06-22T11:33:12.433Z,18.54
2018-06-22T11:34:12.422Z,18.31
2018-06-22T11:35:12.412Z,18.29
2018-06-22T11:36:12.427Z,18.23
2018-06-22T11:37:12.391Z,18.10
2018-06-22T11:38:12.379Z,17.92
2018-06-22T11:39:12.368Z,17.84
2018-06-22T11:40:12.358Z,17.76
2018-06-22T11:41:12.375Z,17.81
2018-06-22T11:42:12.337Z,19.79
2018-06-22T11:43:12.332Z,21.52
2018-06-22T11:44:12.316Z,21.03
2018-06-22T11:45:12.305Z,20.72
2018-06-22T11:46:12.324Z,20.37
2018-06-22T11:47:12.284Z,22.24
2018-06-22T11:48:12.274Z,22.59
2018-06-22T11:49:12.264Z,22.35
2018-06-22T11:50:12.259Z,21.73
2018-06-22T11:51:12.273Z,21.03
2018-06-22T11:52:12.232Z,20.46
2018-06-22T11:53:12.221Z,19.76
2018-06-22T11:54:12.211Z,19.25
2018-06-22T11:55:12.200Z,18.82
2018-06-22T11:56:12.212Z,18.31
2018-06-22T11:57:12.179Z,18.19
2018-06-22T11:58:12.170Z,18.02
2018-06-22T11:59:12.276Z,17.89
2018-06-22T12:00:12.148Z,17.81
2018-06-22T12:01:12.172Z,17.70
2018-06-22T12:02:12.124Z,17.54
2018-06-22T12:03:12.113Z,17.42
2018-06-22T12:04:12.102Z,17.25
2018-06-22T12:05:12.097Z,17.02
2018-06-22T12:06:12.082Z,16.98
2018-06-22T12:07:12.100Z,16.98
2018-06-22T12:08:12.060Z,17.02
2018-06-22T12:09:12.051Z,16.95
2018-06-22T12:10:12.040Z,16.95
2018-06-22T12:11:12.031Z,16.98
2018-06-22T12:12:12.042Z,16.95
2018-06-22T12:13:12.008Z,16.96
2018-06-22T12:14:12.002Z,17.07
2018-06-22T12:15:11.987Z,17.20
2018-06-22T12:16:11.976Z,17.46
2018-06-22T12:17:12.002Z,17.77
2018-06-22T12:18:11.954Z,18.04
2018-06-22T12:19:11.979Z,18.11
2018-06-22T12:20:11.933Z,17.98
2018-06-22T12:21:11.923Z,17.86
2018-06-22T12:22:11.913Z,17.96
2018-06-22T12:23:11.926Z,18.10
2018-06-22T12:24:11.891Z,18.17
2018-06-22T12:25:11.881Z,18.36
2018-06-22T12:26:11.870Z,18.38
2018-06-22T12:27:11.860Z,18.38
2018-06-22T12:28:11.878Z,18.49
2018-06-22T12:29:11.838Z,18.53
2018-06-22T12:30:11.829Z,18.39
2018-06-22T12:31:11.819Z,18.14
2018-06-22T12:32:11.808Z,17.89
2018-06-22T12:33:11.839Z,17.70
2018-06-22T12:34:11.791Z,17.49
2018-06-22T12:35:11.779Z,17.22
2018-06-22T12:36:11.768Z,17.00
2018-06-22T12:37:11.755Z,16.65
2018-06-22T12:38:11.777Z,16.47
2018-06-22T12:39:11.734Z,16.33
2018-06-22T12:40:11.723Z,16.18
2018-06-22T12:41:11.712Z,16.10
2018-06-22T12:42:11.702Z,16.08
2018-06-22T12:43:11.691Z,16.01
2018-06-22T12:44:11.707Z,15.95
2018-06-22T12:45:11.669Z,15.92
2018-06-22T12:46:11.658Z,15.95
2018-06-22T12:47:11.648Z,16.07
2018-06-22T12:48:11.637Z,16.23
2018-06-22T12:49:11.654Z,16.44
2018-06-22T12:50:11.618Z,16.67
2018-06-22T12:51:11.605Z,16.91
2018-06-22T12:52:11.594Z,17.12